Time;durP1;ratioP1;P1;durP2;ratioP2;P2;SDS_P1;SDS_P2;PMS_P1;PMS_P2;Temp;Humidity;BMP_temperature;BMP_pressure;BME280_temperature;BME280_humidity;BME280_pressure;Samples;Min_cycle;Max_cycle;Signal;HPM_P1;HPM_P2
2021/08/22 00:01:49;;;;;;;14.13;7.45;;;20.70;79.90;;;;;;4993993;28;20033;-71
2021/08/22 00:04:15;;;;;;;16.27;7.30;;;20.70;79.60;;;;;;4993669;28;20026;-72
2021/08/22 00:06:41;;;;;;;14.15;7.00;;;20.80;79.20;;;;;;4993888;28;20030;-69
2021/08/22 00:09:07;;;;;;;13.55;7.03;;;20.80;79.40;;;;;;4993872;28;20042;-69
2021/08/22 00:11:33;;;;;;;16.13;6.82;;;20.80;79.20;;;;;;4993865;28;20101;-70
2021/08/22 00:13:59;;;;;;;14.57;7.57;;;20.70;79.40;;;;;;4993772;28;20110;-67
2021/08/22 00:16:24;;;;;;;17.13;7.68;;;20.60;79.90;;;;;;4993771;28;20050;-70
2021/08/22 00:18:50;;;;;;;18.23;7.55;;;20.60;80.30;;;;;;4993752;28;20382;-71
2021/08/22 00:21:16;;;;;;;13.75;7.35;;;20.60;80.00;;;;;;4993729;28;20088;-69
2021/08/22 00:23:42;;;;;;;17.65;7.85;;;20.60;80.70;;;;;;4976291;28;20030;-72
2021/08/22 00:26:08;;;;;;;14.43;7.68;;;20.50;80.40;;;;;;4976262;28;20544;-71
2021/08/22 00:28:34;;;;;;;21.70;7.93;;;20.40;80.30;;;;;;4976224;28;20042;-69
2021/08/22 00:31:00;;;;;;;13.25;7.47;;;20.40;80.30;;;;;;4993296;28;20459;-69
2021/08/22 00:33:25;;;;;;;21.35;8.73;;;20.30;80.40;;;;;;4993530;28;20049;-70
2021/08/22 00:35:51;;;;;;;19.48;8.52;;;20.20;81.30;;;;;;4976030;28;20072;-71
2021/08/22 00:38:17;;;;;;;16.40;8.48;;;20.10;81.70;;;;;;4993635;28;20030;-70
2021/08/22 00:40:43;;;;;;;14.68;8.25;;;20.00;82.10;;;;;;4993590;28;20515;-72
2021/08/22 00:43:09;;;;;;;16.42;8.77;;;20.00;82.00;;;;;;4976058;28;20523;-69
2021/08/22 00:45:37;;;;;;;16.25;7.50;;;19.90;82.20;;;;;;4996807;28;20050;-68
2021/08/22 00:48:04;;;;;;;15.05;8.25;;;19.90;82.00;;;;;;4979888;28;20057;-70
2021/08/22 00:50:32;;;;;;;17.55;8.32;;;19.90;82.60;;;;;;4997429;28;20034;-71
2021/08/22 00:52:59;;;;;;;14.20;8.15;;;19.90;82.90;;;;;;4979897;28;20030;-73
2021/08/22 00:55:25;;;;;;;14.82;7.60;;;19.80;82.70;;;;;;4997001;28;20026;-72
2021/08/22 00:57:51;;;;;;;19.00;8.18;;;19.80;82.50;;;;;;4979742;28;20033;-72
2021/08/22 01:00:17;;;;;;;20.08;6.97;;;19.80;82.80;;;;;;4997270;28;20030;-70
2021/08/22 01:03:04;;;;;;;19.27;7.10;;;19.70;83.30;;;;;;4996975;28;20356;-68
2021/08/22 01:05:58;;;;;;;17.52;7.75;;;19.60;83.70;;;;;;4997443;28;20042;-70
2021/08/22 01:08:41;;;;;;;16.08;8.55;;;19.60;84.20;;;;;;4997364;28;20034;-71
2021/08/22 01:11:19;;;;;;;18.35;7.45;;;19.60;83.40;;;;;;4997131;28;20038;-72
2021/08/22 01:13:58;;;;;;;23.15;7.80;;;19.70;84.20;;;;;;4996989;28;20034;-71
2021/08/22 01:16:28;;;;;;;18.33;7.90;;;19.60;83.80;;;;;;4979791;28;20383;-70
2021/08/22 01:18:59;;;;;;;14.32;7.38;;;19.70;84.40;;;;;;4997011;28;20034;-71
2021/08/22 01:21:25;;;;;;;15.32;6.90;;;19.70;83.80;;;;;;4996680;28;20407;-72
2021/08/22 01:24:01;;;;;;;15.65;6.47;;;19.80;83.80;;;;;;4979343;28;20063;-69
2021/08/22 01:26:35;;;;;;;17.00;7.00;;;19.80;83.30;;;;;;4997378;28;20411;-71
2021/08/22 01:29:03;;;;;;;20.60;7.97;;;19.80;83.10;;;;;;4996758;28;20375;-70
2021/08/22 01:31:37;;;;;;;16.30;8.20;;;19.80;83.40;;;;;;4975424;28;20054;-71
2021/08/22 01:34:03;;;;;;;13.23;7.60;;;19.80;83.80;;;;;;4977407;28;20054;-71
2021/08/22 01:36:30;;;;;;;13.98;7.43;;;19.80;83.50;;;;;;4976854;28;20365;-72
2021/08/22 01:38:57;;;;;;;13.65;7.88;;;19.80;83.90;;;;;;4977160;28;20027;-72
2021/08/22 01:41:24;;;;;;;17.35;7.60;;;19.70;84.60;;;;;;4975715;28;20022;-72
2021/08/22 01:43:56;;;;;;;9.88;6.68;;;19.60;84.70;;;;;;4977068;28;20098;-73
2021/08/22 01:46:35;;;;;;;17.25;7.68;;;19.50;84.90;;;;;;4975688;28;20419;-72
2021/08/22 01:49:04;;;;;;;23.17;7.72;;;19.50;85.70;;;;;;4976947;28;20042;-73
2021/08/22 01:51:31;;;;;;;17.23;7.65;;;19.50;85.70;;;;;;4976862;28;20070;-72
2021/08/22 01:54:03;;;;;;;20.83;7.20;;;19.40;85.30;;;;;;4976839;28;20126;-73
2021/08/22 01:56:31;;;;;;;19.38;7.35;;;19.50;85.50;;;;;;4976493;28;20120;-73
2021/08/22 01:58:58;;;;;;;15.55;7.90;;;19.50;85.70;;;;;;4975428;28;20035;-71
2021/08/22 02:01:26;;;;;;;18.33;7.72;;;19.50;85.40;;;;;;4976711;28;20035;-71
2021/08/22 02:04:13;;;;;;;21.27;7.55;;;19.50;85.20;;;;;;4976944;28;20041;-71
2021/08/22 02:06:47;;;;;;;19.45;7.85;;;19.50;85.80;;;;;;4976869;28;20399;-72
2021/08/22 02:09:16;;;;;;;14.38;7.05;;;19.40;85.90;;;;;;4976621;28;20136;-72
2021/08/22 02:11:46;;;;;;;19.08;7.63;;;19.40;86.20;;;;;;4976505;28;20105;-70
2021/08/22 02:14:14;;;;;;;13.13;7.03;;;19.40;86.60;;;;;;4976665;28;20062;-71
2021/08/22 02:16:47;;;;;;;14.88;8.05;;;19.40;87.00;;;;;;4976366;28;20085;-69
2021/08/22 02:19:14;;;;;;;17.23;7.53;;;19.30;86.60;;;;;;4976444;28;20118;-69
2021/08/22 02:21:40;;;;;;;16.73;7.53;;;19.30;87.30;;;;;;4976090;28;20073;-71
2021/08/22 02:24:07;;;;;;;13.15;7.05;;;19.20;86.90;;;;;;4976369;28;20031;-70
2021/08/22 02:26:34;;;;;;;11.35;6.60;;;19.20;86.90;;;;;;4975002;28;20077;-71
2021/08/22 02:29:00;;;;;;;16.13;7.35;;;19.10;87.30;;;;;;4974921;28;20077;-68
2021/08/22 02:31:28;;;;;;;16.95;7.93;;;19.00;87.30;;;;;;4987949;28;20429;-71
2021/08/22 02:33:57;;;;;;;15.05;7.50;;;19.00;87.70;;;;;;4995523;28;20030;-71
2021/08/22 02:36:24;;;;;;;15.07;7.90;;;19.00;87.60;;;;;;4995738;28;20382;-68
2021/08/22 02:38:51;;;;;;;12.65;7.68;;;18.90;88.20;;;;;;4977982;28;20026;-71
2021/08/22 02:41:17;;;;;;;16.95;7.60;;;18.90;88.60;;;;;;4995649;28;20080;-70
2021/08/22 02:43:43;;;;;;;17.83;7.20;;;18.90;89.00;;;;;;4995434;28;20034;-68
2021/08/22 02:46:09;;;;;;;17.17;7.93;;;18.90;89.00;;;;;;4995318;28;20088;-68
2021/08/22 02:48:35;;;;;;;15.82;7.45;;;19.00;89.80;;;;;;4995271;28;20033;-69
2021/08/22 02:51:02;;;;;;;12.77;6.65;;;18.90;90.20;;;;;;4995230;28;20026;-69
2021/08/22 02:53:29;;;;;;;12.50;7.72;;;18.90;90.40;;;;;;4995128;28;20035;-68
2021/08/22 02:55:55;;;;;;;17.08;8.25;;;18.90;90.30;;;;;;4995396;28;20029;-71
2021/08/22 02:58:21;;;;;;;22.52;8.35;;;18.80;91.10;;;;;;4995064;28;20502;-70
2021/08/22 03:00:47;;;;;;;11.98;7.60;;;18.70;91.40;;;;;;4977534;28;20066;-71
2021/08/22 03:03:13;;;;;;;18.98;8.50;;;18.70;90.80;;;;;;4995041;28;20467;-70
2021/08/22 03:05:39;;;;;;;22.13;7.07;;;18.60;90.20;;;;;;4994917;28;20038;-69
2021/08/22 03:08:05;;;;;;;14.52;7.40;;;;;;;;;;4993987;28;20653;-68
2021/08/22 03:10:32;;;;;;;18.23;7.30;;;;;;;;;;4977306;28;20073;-68
2021/08/22 03:12:58;;;;;;;20.77;7.32;;;;;;;;;;4977276;28;20037;-69
2021/08/22 03:15:24;;;;;;;14.98;7.30;;;;;;;;;;4994661;28;20030;-69
2021/08/22 03:17:51;;;;;;;21.05;7.85;;;;;;;;;;4994726;28;20022;-70
2021/08/22 03:20:17;;;;;;;22.85;7.93;;;18.70;94.90;;;;;;4994644;28;20030;-71
2021/08/22 03:22:46;;;;;;;12.32;7.55;;;18.60;91.70;;;;;;4977130;28;20022;-68
2021/08/22 03:25:13;;;;;;;21.13;7.57;;;18.50;91.40;;;;;;4977071;28;20038;-71
2021/08/22 03:27:39;;;;;;;16.00;7.90;;;18.50;91.70;;;;;;4976988;28;20026;-73
2021/08/22 03:30:06;;;;;;;15.63;8.10;;;18.50;92.60;;;;;;4994215;28;20032;-70
2021/08/22 03:32:32;;;;;;;16.90;8.43;;;18.50;92.80;;;;;;4994661;28;20037;-72
2021/08/22 03:34:57;;;;;;;16.23;8.30;;;18.50;92.90;;;;;;4994391;28;20398;-70
2021/08/22 03:37:24;;;;;;;13.77;7.55;;;18.50;93.40;;;;;;4976837;28;20034;-73
2021/08/22 03:39:50;;;;;;;16.10;8.68;;;18.40;93.60;;;;;;4976853;28;20022;-71
2021/08/22 03:42:16;;;;;;;14.20;7.90;;;18.40;93.80;;;;;;4994249;28;20101;-68
2021/08/22 03:44:43;;;;;;;17.92;8.20;;;;;;;;;;4994298;28;20030;-72
2021/08/22 03:47:09;;;;;;;20.42;8.77;;;18.40;94.10;;;;;;4994433;28;20036;-71
2021/08/22 03:49:35;;;;;;;16.73;8.20;;;;;;;;;;4994186;28;20026;-72
2021/08/22 03:52:02;;;;;;;17.40;7.75;;;;;;;;;;4994119;28;20046;-71
2021/08/22 03:54:28;;;;;;;14.32;7.75;;;;;;;;;;4994059;28;20077;-71
2021/08/22 03:56:54;;;;;;;18.38;8.27;;;;;;;;;;4976525;28;20033;-71
2021/08/22 03:59:20;;;;;;;14.88;8.60;;;18.40;93.70;;;;;;4993819;28;20545;-71
2021/08/22 04:01:46;;;;;;;21.35;8.32;;;18.30;93.30;;;;;;4993710;28;20026;-71
2021/08/22 04:04:12;;;;;;;15.77;8.23;;;18.40;93.10;;;;;;4993734;28;20360;-68
2021/08/22 04:06:46;;;;;;;14.60;8.00;;;18.40;93.60;;;;;;4993922;28;20069;-69
2021/08/22 04:09:12;;;;;;;22.98;8.63;;;18.50;93.90;;;;;;4993933;28;20030;-69
2021/08/22 04:11:39;;;;;;;17.23;8.70;;;18.50;94.10;;;;;;4993816;28;20526;-71
2021/08/22 04:14:09;;;;;;;20.38;8.32;;;18.50;94.10;;;;;;4993737;28;20050;-69
2021/08/22 04:16:35;;;;;;;15.57;9.27;;;18.50;94.40;;;;;;4993746;28;20022;-70
2021/08/22 04:19:00;;;;;;;13.50;7.47;;;18.50;94.60;;;;;;4993462;28;20033;-69
2021/08/22 04:21:26;;;;;;;19.77;8.23;;;18.50;94.40;;;;;;4976241;28;20050;-73
2021/08/22 04:23:52;;;;;;;22.23;9.07;;;18.50;94.30;;;;;;4976252;28;20121;-73
2021/08/22 04:26:18;;;;;;;19.52;8.50;;;18.50;94.40;;;;;;4993977;28;20061;-72
2021/08/22 04:28:44;;;;;;;22.90;9.30;;;18.50;94.50;;;;;;4976192;28;20022;-69
2021/08/22 04:31:10;;;;;;;17.08;8.60;;;;;;;;;;4975910;28;20046;-70
2021/08/22 04:33:36;;;;;;;17.55;8.63;;;;;;;;;;4993577;28;20433;-72
2021/08/22 04:36:05;;;;;;;21.40;9.07;;;;;;;;;;4993578;28;20026;-70
2021/08/22 04:38:32;;;;;;;19.60;9.05;;;;;;;;;;4993343;28;20069;-70
2021/08/22 04:40:57;;;;;;;23.42;10.45;;;18.50;94.80;;;;;;4993327;28;20506;-69
2021/08/22 04:43:24;;;;;;;25.25;10.65;;;18.50;95.20;;;;;;4993566;28;20065;-69
2021/08/22 04:45:50;;;;;;;16.98;9.05;;;18.50;93.10;;;;;;4993582;28;20118;-69
2021/08/22 04:48:16;;;;;;;20.83;9.65;;;18.50;93.00;;;;;;4976043;28;20523;-70
2021/08/22 04:50:48;;;;;;;22.83;9.65;;;18.50;92.60;;;;;;4993471;28;20030;-69
2021/08/22 04:53:14;;;;;;;24.10;9.85;;;18.50;92.50;;;;;;4993507;28;20031;-68
2021/08/22 04:55:40;;;;;;;23.70;9.95;;;18.50;92.20;;;;;;4993426;28;20062;-66
2021/08/22 04:58:06;;;;;;;24.80;9.38;;;18.50;92.10;;;;;;4993436;28;20026;-68
2021/08/22 05:00:31;;;;;;;24.60;9.90;;;18.50;92.40;;;;;;4993394;28;20468;-66
2021/08/22 05:02:58;;;;;;;21.70;10.32;;;18.50;92.50;;;;;;4993363;28;20030;-66
2021/08/22 05:05:23;;;;;;;24.90;9.63;;;18.50;92.50;;;;;;4975877;28;20084;-68
2021/08/22 05:07:49;;;;;;;23.05;10.68;;;18.60;92.80;;;;;;4993372;28;20510;-65
2021/08/22 05:10:16;;;;;;;17.65;10.43;;;18.60;93.50;;;;;;4993325;28;20514;-65
2021/08/22 05:12:42;;;;;;;25.98;10.95;;;18.70;93.90;;;;;;4993282;28;20029;-64
2021/08/22 05:15:09;;;;;;;35.83;10.77;;;18.70;93.40;;;;;;4990372;28;20043;-68
2021/08/22 05:17:34;;;;;;;32.03;10.75;;;18.70;93.60;;;;;;4992892;28;20054;-69
2021/08/22 05:20:00;;;;;;;16.83;10.05;;;18.90;93.60;;;;;;4993459;28;20070;-68
2021/08/22 05:22:26;;;;;;;24.20;10.45;;;19.00;93.70;;;;;;4993191;28;20037;-69
2021/08/22 05:24:52;;;;;;;17.60;10.32;;;19.10;93.20;;;;;;4993200;28;20045;-70
2021/08/22 05:27:18;;;;;;;16.15;11.00;;;19.10;92.70;;;;;;4993228;28;20057;-69
2021/08/22 05:29:43;;;;;;;22.00;10.40;;;19.20;92.70;;;;;;4992945;28;20464;-70
2021/08/22 05:32:10;;;;;;;22.83;10.30;;;19.30;93.00;;;;;;4996812;28;20082;-68
2021/08/22 05:34:35;;;;;;;21.92;10.60;;;19.30;93.30;;;;;;4995353;28;20035;-68
2021/08/22 05:37:01;;;;;;;24.35;9.68;;;19.40;93.10;;;;;;4996547;28;20035;-67
2021/08/22 05:39:27;;;;;;;20.10;9.10;;;19.50;93.00;;;;;;4996442;28;20030;-67
2021/08/22 05:41:53;;;;;;;17.75;9.25;;;19.60;91.60;;;;;;4996413;28;20053;-65
2021/08/22 05:44:19;;;;;;;14.55;8.10;;;19.70;91.00;;;;;;4978849;28;20066;-72
2021/08/22 05:46:45;;;;;;;18.80;8.90;;;19.80;88.80;;;;;;4996669;28;20041;-66
2021/08/22 05:49:10;;;;;;;18.35;8.25;;;19.80;90.10;;;;;;4996322;28;20371;-68
2021/08/22 05:51:36;;;;;;;22.35;9.73;;;19.90;90.00;;;;;;4996172;28;20026;-67
2021/08/22 05:54:02;;;;;;;16.00;8.77;;;19.90;89.50;;;;;;4996150;28;20126;-67
2021/08/22 05:56:28;;;;;;;18.10;9.32;;;20.00;88.70;;;;;;4996155;28;20034;-67
2021/08/22 05:58:54;;;;;;;17.63;8.70;;;20.10;88.60;;;;;;4996004;28;20490;-72
2021/08/22 06:01:20;;;;;;;23.33;9.27;;;20.20;89.50;;;;;;4996048;28;20383;-69
2021/08/22 06:03:45;;;;;;;18.55;8.40;;;20.30;88.90;;;;;;4995984;28;20080;-69
2021/08/22 06:06:12;;;;;;;26.65;9.60;;;20.40;88.50;;;;;;4996032;28;20061;-67
2021/08/22 06:08:38;;;;;;;16.20;8.80;;;20.40;87.10;;;;;;4996236;28;20386;-69
2021/08/22 06:11:04;;;;;;;16.80;8.88;;;20.50;86.90;;;;;;4996126;28;20177;-66
2021/08/22 06:13:30;;;;;;;20.30;8.63;;;20.60;86.50;;;;;;4995707;28;20026;-65
2021/08/22 06:15:56;;;;;;;24.10;9.60;;;20.70;86.50;;;;;;4995873;28;20031;-66
2021/08/22 06:18:22;;;;;;;20.90;8.73;;;20.80;85.60;;;;;;4995759;28;20032;-67
2021/08/22 06:20:48;;;;;;;14.80;9.07;;;20.90;85.90;;;;;;4995762;28;20467;-66
2021/08/22 06:23:14;;;;;;;19.30;8.55;;;20.90;86.90;;;;;;4978167;28;20084;-70
2021/08/22 06:25:40;;;;;;;16.73;8.30;;;21.00;87.00;;;;;;4995570;28;20140;-67
2021/08/22 06:28:06;;;;;;;17.50;8.65;;;21.10;86.90;;;;;;4995544;28;20106;-69
2021/08/22 06:30:31;;;;;;;20.83;9.65;;;21.20;86.20;;;;;;4995202;28;20129;-69
2021/08/22 06:32:58;;;;;;;14.95;8.48;;;21.40;85.40;;;;;;4995566;28;20246;-70
2021/08/22 06:35:24;;;;;;;16.50;8.07;;;21.50;84.80;;;;;;4995300;28;20538;-68
2021/08/22 06:37:51;;;;;;;22.20;8.65;;;21.60;85.50;;;;;;4995154;28;20109;-68
2021/08/22 06:40:18;;;;;;;28.60;8.45;;;21.70;85.50;;;;;;4988572;28;20114;-70
2021/08/22 06:42:44;;;;;;;16.05;8.48;;;21.80;84.80;;;;;;4964545;28;20034;-68
2021/08/22 06:45:10;;;;;;;13.80;9.82;;;21.90;84.50;;;;;;4984835;28;20420;-68
2021/08/22 06:47:36;;;;;;;24.67;9.75;;;22.00;83.40;;;;;;4984615;28;20023;-68
2021/08/22 06:50:03;;;;;;;21.20;10.35;;;22.10;83.10;;;;;;4980366;28;20082;-68
2021/08/22 06:52:29;;;;;;;22.25;11.82;;;22.10;83.20;;;;;;4975685;28;20026;-71
2021/08/22 06:54:55;;;;;;;20.48;11.65;;;22.20;82.90;;;;;;4957688;28;20369;-71
2021/08/22 06:57:20;;;;;;;20.48;9.75;;;22.30;82.20;;;;;;4958145;28;20023;-73
2021/08/22 06:59:46;;;;;;;22.83;11.90;;;22.40;83.80;;;;;;4975566;28;20480;-71
2021/08/22 07:02:12;;;;;;;25.50;10.82;;;22.50;82.10;;;;;;4975527;28;20023;-70
2021/08/22 07:04:38;;;;;;;20.98;13.55;;;22.60;81.90;;;;;;4958016;28;20081;-69
2021/08/22 07:07:05;;;;;;;21.20;13.85;;;22.70;80.70;;;;;;4958395;28;20134;-71
2021/08/22 07:09:31;;;;;;;25.27;14.00;;;;;;;;;;4975269;28;20027;-72
2021/08/22 07:11:57;;;;;;;24.98;13.88;;;;;;;;;;4975291;28;20057;-71
2021/08/22 07:14:23;;;;;;;30.35;14.02;;;;;;;;;;4974883;28;20034;-71
2021/08/22 07:16:50;;;;;;;27.05;13.68;;;;;;;;;;4958080;28;20475;-70
2021/08/22 07:19:16;;;;;;;28.42;13.73;;;;;;;;;;4975339;28;20472;-70
2021/08/22 07:21:42;;;;;;;26.25;14.32;;;23.50;75.50;;;;;;4975268;28;20023;-69
2021/08/22 07:24:08;;;;;;;31.38;14.38;;;23.60;76.20;;;;;;4958064;28;20434;-70
2021/08/22 07:26:34;;;;;;;32.72;13.23;;;23.70;76.20;;;;;;4975288;28;20035;-71
2021/08/22 07:29:02;;;;;;;25.88;14.43;;;;;;;;;;4975144;28;20029;-70
2021/08/22 07:31:27;;;;;;;27.80;15.07;;;23.90;75.10;;;;;;4987342;28;20194;-70
2021/08/22 07:33:53;;;;;;;26.75;14.80;;;24.00;75.40;;;;;;4994036;28;20045;-71
2021/08/22 07:36:19;;;;;;;30.77;15.57;;;24.10;75.30;;;;;;4994131;28;20033;-71
2021/08/22 07:38:45;;;;;;;32.20;12.27;;;24.30;74.80;;;;;;4976840;28;20033;-70
2021/08/22 07:41:11;;;;;;;24.13;10.82;;;24.40;73.80;;;;;;4994048;28;20032;-70
2021/08/22 07:43:37;;;;;;;25.02;11.55;;;24.50;72.50;;;;;;4994608;28;20034;-70
2021/08/22 07:46:03;;;;;;;21.88;9.68;;;24.60;71.70;;;;;;4994328;28;20403;-69
2021/08/22 07:48:28;;;;;;;16.40;9.07;;;24.80;71.10;;;;;;4993981;28;20023;-70
2021/08/22 07:50:54;;;;;;;19.15;11.38;;;24.90;71.00;;;;;;4972751;28;20420;-70
2021/08/22 07:53:20;;;;;;;34.72;17.15;;;25.00;71.00;;;;;;4993066;28;20034;-72
2021/08/22 07:55:46;;;;;;;29.67;12.73;;;25.10;72.40;;;;;;4976146;28;20044;-71
2021/08/22 07:58:12;;;;;;;19.02;9.95;;;25.30;71.30;;;;;;4976500;28;20022;-72
2021/08/22 08:00:38;;;;;;;21.50;12.45;;;25.50;71.00;;;;;;4976411;28;20402;-70
2021/08/22 08:03:04;;;;;;;16.30;9.55;;;25.60;70.40;;;;;;4993920;28;20109;-69
2021/08/22 08:05:30;;;;;;;22.08;12.48;;;25.80;70.70;;;;;;4993846;28;20112;-69
2021/08/22 08:07:56;;;;;;;13.20;8.75;;;;;;;;;;4993803;28;20105;-67
2021/08/22 08:10:24;;;;;;;11.55;7.80;;;26.10;67.30;;;;;;4976335;28;20050;-69
2021/08/22 08:12:50;;;;;;;23.98;17.20;;;26.20;66.70;;;;;;4976306;28;20083;-70
2021/08/22 08:15:16;;;;;;;35.05;20.88;;;26.30;69.00;;;;;;4976128;28;20041;-69
2021/08/22 08:17:42;;;;;;;31.83;18.77;;;26.50;68.70;;;;;;4993719;28;20157;-70
2021/08/22 08:20:08;;;;;;;32.70;18.83;;;26.70;67.40;;;;;;4993526;28;20113;-70
2021/08/22 08:22:34;;;;;;;29.30;19.83;;;26.70;66.50;;;;;;4993657;28;20038;-68
2021/08/22 08:25:00;;;;;;;23.08;15.65;;;26.80;65.70;;;;;;4993173;28;20039;-70
2021/08/22 08:27:26;;;;;;;19.42;12.70;;;;;;;;;;4993891;28;20031;-70
2021/08/22 08:29:52;;;;;;;30.48;14.80;;;27.20;66.40;;;;;;4993508;28;20076;-69
2021/08/22 08:32:18;;;;;;;16.80;11.20;;;27.30;65.00;;;;;;4975516;28;20054;-71
2021/08/22 08:34:44;;;;;;;16.88;7.68;;;27.50;65.60;;;;;;4993401;28;20479;-74
2021/08/22 08:37:10;;;;;;;18.55;6.00;;;27.60;64.90;;;;;;4993530;28;20065;-69
2021/08/22 08:39:36;;;;;;;16.67;5.65;;;27.80;63.50;;;;;;4993647;28;20026;-69
2021/08/22 08:42:23;;;;;;;16.75;6.45;;;27.80;63.20;;;;;;4993445;28;20109;-68
2021/08/22 08:44:52;;;;;;;9.15;5.10;;;28.00;63.30;;;;;;4993349;28;20034;-70
2021/08/22 08:47:19;;;;;;;6.00;4.28;;;28.30;62.80;;;;;;4993306;28;20054;-71
2021/08/22 08:50:06;;;;;;;5.57;4.55;;;28.40;60.70;;;;;;4975861;28;20483;-72
2021/08/22 08:52:45;;;;;;;7.72;4.70;;;28.50;61.10;;;;;;4975952;28;20026;-73
2021/08/22 08:55:25;;;;;;;5.15;3.88;;;28.70;60.60;;;;;;4975812;28;20042;-73
2021/08/22 08:57:50;;;;;;;7.25;4.32;;;28.80;59.50;;;;;;4993360;28;20027;-70
2021/08/22 09:00:20;;;;;;;7.30;3.50;;;29.00;59.90;;;;;;4993206;28;20041;-70
2021/08/22 09:02:46;;;;;;;4.90;3.70;;;29.10;58.70;;;;;;4993318;28;20038;-67
2021/08/22 09:05:30;;;;;;;6.55;3.45;;;29.30;58.70;;;;;;4994070;28;20038;-70
2021/08/22 09:08:03;;;;;;;6.53;4.22;;;29.50;59.20;;;;;;4997157;28;20026;-67
2021/08/22 09:11:21;;;;;;;4.55;3.80;;;29.60;57.50;;;;;;4997123;28;20109;-67
2021/08/22 09:14:11;;;;;;;13.98;4.13;;;29.80;57.00;;;;;;4979472;28;20034;-70
2021/08/22 09:17:07;;;;;;;6.50;3.50;;;30.00;57.70;;;;;;4979117;28;20030;-68
2021/08/22 09:20:10;;;;;;;8.07;4.32;;;30.20;59.20;;;;;;4996821;28;20037;-72
2021/08/22 09:23:14;;;;;;;15.13;5.00;;;30.40;58.10;;;;;;4979277;28;20034;-71
2021/08/22 09:26:05;;;;;;;10.98;4.88;;;30.60;58.50;;;;;;4996532;28;20034;-71
2021/08/22 09:29:08;;;;;;;5.77;3.60;;;30.70;56.80;;;;;;4996799;28;20149;-69
2021/08/22 09:31:58;;;;;;;6.72;3.72;;;30.90;56.50;;;;;;4996624;28;20053;-68
2021/08/22 09:34:43;;;;;;;5.40;3.08;;;;;;;;;;4996626;28;20046;-74
2021/08/22 09:37:11;;;;;;;6.78;3.15;;;31.00;55.80;;;;;;4996531;28;20066;-73
2021/08/22 09:40:28;;;;;;;3.65;2.95;;;31.20;53.70;;;;;;4978912;28;20038;-71
2021/08/22 09:43:38;;;;;;;9.50;3.75;;;31.40;52.90;;;;;;4952900;28;20483;-75
2021/08/22 09:46:41;;;;;;;6.57;2.55;;;31.70;53.10;;;;;;4934639;28;20771;-72
2021/08/22 09:49:31;;;;;;;5.28;3.25;;;31.90;53.30;;;;;;4995895;28;20101;-72
2021/08/22 09:52:22;;;;;;;5.60;3.83;;;32.10;54.00;;;;;;4996401;28;20038;-70
2021/08/22 09:55:15;;;;;;;10.27;3.20;;;32.20;53.10;;;;;;4978694;28;20063;-70
2021/08/22 09:58:18;;;;;;;7.68;2.88;;;32.20;51.30;;;;;;4996203;28;20027;-70
2021/08/22 10:01:14;;;;;;;5.95;3.28;;;32.40;52.80;;;;;;4995949;28;20035;-71
2021/08/22 10:04:16;;;;;;;5.47;3.17;;;32.70;53.30;;;;;;4995911;28;20054;-70
2021/08/22 10:07:04;;;;;;;8.60;3.22;;;33.00;52.70;;;;;;4978459;28;20525;-71
2021/08/22 10:09:57;;;;;;;5.53;2.92;;;33.10;51.80;;;;;;4978071;28;20088;-73
2021/08/22 10:12:23;;;;;;;4.03;2.70;;;33.20;53.10;;;;;;4995953;28;20030;-74
2021/08/22 10:14:49;;;;;;;3.38;2.78;;;33.20;52.00;;;;;;4995899;28;20364;-71
2021/08/22 10:17:21;;;;;;;4.10;3.15;;;33.30;51.60;;;;;;4995623;28;20030;-72
2021/08/22 10:19:48;;;;;;;6.43;2.92;;;33.50;50.90;;;;;;4977667;28;20030;-72
2021/08/22 10:22:18;;;;;;;7.68;3.03;;;33.30;50.90;;;;;;4978059;28;20080;-70
2021/08/22 10:24:54;;;;;;;4.00;2.72;;;33.60;51.20;;;;;;4995698;28;20065;-70
2021/08/22 10:27:37;;;;;;;6.50;3.05;;;34.10;51.50;;;;;;4995532;28;20019;-70
2021/08/22 10:30:03;;;;;;;4.38;2.97;;;34.40;50.40;;;;;;4995355;28;20069;-74
2021/08/22 10:32:29;;;;;;;6.93;3.03;;;;;;;;;;4995287;28;20031;-71
2021/08/22 10:35:10;;;;;;;5.75;3.20;;;34.60;54.20;;;;;;4995317;28;20058;-70
2021/08/22 10:37:37;;;;;;;3.92;3.00;;;36.00;47.30;;;;;;4995347;28;20105;-65
2021/08/22 10:40:28;;;;;;;7.47;3.28;;;36.60;71.20;;;;;;4994732;28;20038;-67
2021/08/22 10:42:57;;;;;;;6.85;2.80;;;37.10;57.80;;;;;;4969848;28;20046;-68
2021/08/22 10:45:42;;;;;;;3.45;2.75;;;;;;;;;;4976932;28;20427;-69
2021/08/22 10:48:09;;;;;;;4.32;2.85;;;37.80;48.20;;;;;;4994544;28;20085;-68
2021/08/22 10:50:53;;;;;;;5.03;2.85;;;;;;;;;;4994258;28;20030;-68
2021/08/22 10:53:32;;;;;;;5.35;2.47;;;38.70;43.30;;;;;;4976854;28;20030;-66
2021/08/22 10:55:59;;;;;;;2.50;2.20;;;38.70;41.80;;;;;;4976983;28;20042;-71
2021/08/22 10:59:09;;;;;;;1.92;1.83;;;39.70;40.20;;;;;;4995171;28;20085;-69
2021/08/22 11:01:37;;;;;;;4.25;2.33;;;40.30;38.50;;;;;;4987832;28;20053;-70
2021/08/22 11:04:07;;;;;;;5.95;2.15;;;40.50;38.00;;;;;;4994716;28;20030;-68
2021/08/22 11:06:35;;;;;;;4.00;2.25;;;41.20;38.10;;;;;;4977283;28;20030;-67
2021/08/22 11:09:01;;;;;;;2.40;2.20;;;41.80;37.50;;;;;;4990978;28;20030;-68
2021/08/22 11:11:27;;;;;;;2.72;2.20;;;41.90;37.50;;;;;;4957535;28;20081;-69
2021/08/22 11:13:57;;;;;;;6.25;2.38;;;42.40;35.70;;;;;;4975113;28;20022;-70
2021/08/22 11:16:49;;;;;;;4.43;2.40;;;42.10;36.50;;;;;;4975056;28;20050;-71
2021/08/22 11:19:15;;;;;;;2.35;2.15;;;42.70;36.30;;;;;;4975223;28;20041;-66
2021/08/22 11:21:41;;;;;;;2.22;2.05;;;43.20;36.40;;;;;;4957540;28;20030;-70
2021/08/22 11:24:07;;;;;;;4.45;2.38;;;43.50;41.90;;;;;;4975071;28;20030;-68
2021/08/22 11:26:34;;;;;;;5.45;2.80;;;43.60;36.00;;;;;;4974944;28;20019;-68
2021/08/22 11:29:01;;;;;;;2.88;2.25;;;43.70;36.50;;;;;;4974422;28;20459;-69
2021/08/22 11:31:33;;;;;;;3.58;2.13;;;42.20;36.40;;;;;;4986495;28;20125;-69
2021/08/22 11:34:13;;;;;;;3.20;2.47;;;42.10;37.30;;;;;;4976259;28;20034;-71
2021/08/22 11:36:40;;;;;;;3.50;2.20;;;42.60;36.70;;;;;;4976602;28;20073;-71
2021/08/22 11:39:17;;;;;;;2.28;2.10;;;41.90;36.70;;;;;;4993757;28;20103;-70
2021/08/22 11:41:49;;;;;;;2.30;2.10;;;40.70;38.00;;;;;;4993932;28;20376;-70
2021/08/22 11:44:23;;;;;;;3.30;2.45;;;40.50;38.70;;;;;;4993966;28;20045;-69
2021/08/22 11:46:53;;;;;;;3.92;2.28;;;39.30;39.70;;;;;;4976654;28;20122;-67
2021/08/22 11:49:20;;;;;;;3.67;2.22;;;38.40;39.70;;;;;;4994040;28;20034;-69
2021/08/22 11:51:54;;;;;;;3.63;2.15;;;38.00;40.90;;;;;;4994095;28;20464;-70
2021/08/22 11:54:22;;;;;;;2.92;1.95;;;38.00;39.60;;;;;;4976574;28;20088;-68
2021/08/22 11:56:48;;;;;;;4.10;2.03;;;37.90;40.70;;;;;;4976439;28;20467;-68
2021/08/22 11:59:28;;;;;;;4.68;2.15;;;38.50;39.80;;;;;;4993959;28;20027;-68
2021/08/22 12:02:25;;;;;;;2.30;2.10;;;38.50;39.10;;;;;;4993840;28;20038;-70
2021/08/22 12:05:12;;;;;;;3.47;2.20;;;39.30;38.60;;;;;;4993910;28;20030;-69
2021/08/22 12:07:38;;;;;;;4.75;1.98;;;41.40;39.20;;;;;;4993779;28;20108;-68
2021/08/22 12:10:05;;;;;;;2.47;2.03;;;43.50;35.80;;;;;;4976314;28;20031;-71
2021/08/22 12:12:38;;;;;;;2.50;2.30;;;43.70;35.70;;;;;;4976056;28;20031;-70
2021/08/22 12:15:11;;;;;;;3.95;2.05;;;44.70;34.60;;;;;;4976264;28;20597;-70
2021/08/22 12:17:36;;;;;;;2.72;2.20;;;45.50;34.30;;;;;;4993170;28;20376;-72
2021/08/22 12:20:17;;;;;;;5.85;2.28;;;46.00;35.60;;;;;;4976031;28;20064;-68
2021/08/22 12:22:43;;;;;;;4.90;2.03;;;46.40;36.20;;;;;;4976231;28;20050;-70
2021/08/22 12:25:24;;;;;;;2.50;2.30;;;46.60;33.90;;;;;;4993604;28;20046;-73
2021/08/22 12:27:50;;;;;;;4.40;2.15;;;46.60;32.40;;;;;;4993641;28;20033;-69
2021/08/22 12:30:16;;;;;;;1.80;1.70;;;46.80;32.80;;;;;;4993241;28;20364;-70
2021/08/22 12:32:42;;;;;;;2.22;2.00;;;46.80;32.00;;;;;;4993609;28;20035;-69
2021/08/22 12:35:09;;;;;;;2.88;2.15;;;47.30;39.30;;;;;;4993410;28;20046;-69
2021/08/22 12:37:35;;;;;;;2.15;2.00;;;47.60;32.60;;;;;;4993592;28;20030;-67
2021/08/22 12:40:06;;;;;;;2.67;2.30;;;47.60;33.20;;;;;;4994009;28;20085;-69
2021/08/22 12:42:35;;;;;;;3.55;2.40;;;47.40;32.20;;;;;;4997797;28;20057;-68
2021/08/22 12:45:01;;;;;;;34.97;3.90;;;47.80;32.50;;;;;;4996960;28;20529;-64
2021/08/22 12:47:27;;;;;;;6.22;2.00;;;47.90;31.80;;;;;;4997065;28;20027;-67
2021/08/22 12:49:55;;;;;;;4.50;2.20;;;48.80;31.90;;;;;;4997085;28;20093;-68
2021/08/22 12:52:21;;;;;;;2.40;1.95;;;49.20;31.20;;;;;;4996197;28;20125;-65
2021/08/22 12:54:47;;;;;;;2.00;1.90;;;49.20;30.90;;;;;;4997391;28;20077;-67
2021/08/22 12:57:13;;;;;;;2.80;1.90;;;49.30;30.80;;;;;;4997376;28;20494;-68
2021/08/22 12:59:39;;;;;;;3.03;1.90;;;49.30;31.10;;;;;;4997476;28;20097;-66
2021/08/22 13:02:05;;;;;;;2.20;2.00;;;49.40;30.60;;;;;;4997320;28;20455;-68